createdAt,value
2023-05-12T00:00:12.247Z,14.60
2023-05-12T00:02:38.770Z,14.50
2023-05-12T00:05:05.321Z,14.50
2023-05-12T00:07:31.796Z,14.40
2023-05-12T00:09:58.229Z,14.40
2023-05-12T00:12:24.708Z,14.40
2023-05-12T00:14:51.119Z,14.40
2023-05-12T00:17:17.542Z,14.50
2023-05-12T00:19:43.988Z,14.50
2023-05-12T00:22:10.716Z,14.50
2023-05-12T00:24:37.177Z,14.50
2023-05-12T00:27:03.610Z,14.50
2023-05-12T00:29:29.999Z,14.50
2023-05-12T00:31:56.560Z,14.50
2023-05-12T00:34:23.021Z,14.50
2023-05-12T00:36:49.445Z,14.50
2023-05-12T00:39:15.890Z,14.50
2023-05-12T00:41:42.282Z,14.50
2023-05-12T00:44:08.682Z,14.50
2023-05-12T00:46:35.068Z,14.50
2023-05-12T00:49:01.510Z,14.50
2023-05-12T00:51:28.012Z,14.50
2023-05-12T00:53:54.415Z,14.50
2023-05-12T00:56:20.850Z,14.50
2023-05-12T00:58:47.348Z,14.50
2023-05-12T01:01:13.864Z,14.50
2023-05-12T01:03:40.414Z,14.50
2023-05-12T01:06:06.876Z,14.50
2023-05-12T01:08:33.319Z,14.40
2023-05-12T01:10:59.701Z,14.40
2023-05-12T01:13:26.145Z,14.30
2023-05-12T01:15:52.618Z,14.30
2023-05-12T01:18:19.072Z,14.40
2023-05-12T01:20:45.767Z,14.40
2023-05-12T01:23:12.249Z,14.40
2023-05-12T01:25:38.699Z,14.40
2023-05-12T01:28:05.215Z,14.40
2023-05-12T01:30:31.626Z,14.40
2023-05-12T01:32:58.097Z,14.40
2023-05-12T01:35:24.548Z,14.40
2023-05-12T01:37:50.982Z,14.40
2023-05-12T01:40:17.611Z,14.40
2023-05-12T01:42:44.144Z,14.40
2023-05-12T01:45:10.656Z,14.40
2023-05-12T01:47:37.077Z,14.40
2023-05-12T01:50:03.546Z,14.40
2023-05-12T01:52:29.924Z,14.40
2023-05-12T01:54:56.355Z,14.40
2023-05-12T01:57:22.932Z,14.40
2023-05-12T01:59:49.453Z,14.40
2023-05-12T02:02:16.034Z,14.40
2023-05-12T02:04:42.518Z,14.30
2023-05-12T02:07:08.908Z,14.40
2023-05-12T02:09:35.365Z,14.40
2023-05-12T02:12:01.847Z,14.40
2023-05-12T02:14:28.313Z,14.40
2023-05-12T02:16:54.747Z,14.30
2023-05-12T02:19:21.164Z,14.30
2023-05-12T02:21:47.543Z,14.30
2023-05-12T02:24:14.992Z,14.40
2023-05-12T02:26:41.471Z,14.40
2023-05-12T02:29:07.978Z,14.40
2023-05-12T02:31:34.370Z,14.40
2023-05-12T02:34:00.839Z,14.30
2023-05-12T02:36:27.216Z,14.30
2023-05-12T02:38:53.650Z,14.20
2023-05-12T02:41:20.038Z,14.20
2023-05-12T02:43:46.795Z,14.20
2023-05-12T02:46:13.199Z,14.20
2023-05-12T02:48:39.657Z,14.20
2023-05-12T02:51:06.038Z,14.20
2023-05-12T02:53:32.518Z,14.20
2023-05-12T02:55:58.968Z,14.20
2023-05-12T02:58:25.396Z,14.20
2023-05-12T03:00:59.747Z,14.20
2023-05-12T03:03:33.462Z,14.20
2023-05-12T03:05:59.886Z,14.10
2023-05-12T03:08:26.318Z,14.20
2023-05-12T03:10:52.774Z,14.20
2023-05-12T03:13:19.262Z,14.20
2023-05-12T03:15:45.959Z,14.20
2023-05-12T03:18:12.454Z,14.20
2023-05-12T03:20:38.891Z,14.20
2023-05-12T03:23:05.333Z,14.30
2023-05-12T03:25:31.820Z,14.30
2023-05-12T03:27:58.261Z,14.30
2023-05-12T03:30:24.636Z,14.20
2023-05-12T03:32:51.107Z,14.20
2023-05-12T03:35:17.554Z,14.20
2023-05-12T03:37:44.045Z,14.20
2023-05-12T03:40:10.500Z,14.20
2023-05-12T03:42:36.889Z,14.20
2023-05-12T03:45:03.491Z,14.20
2023-05-12T03:47:30.080Z,14.20
2023-05-12T03:49:56.682Z,14.20
2023-05-12T03:52:23.081Z,14.20
2023-05-12T03:54:49.519Z,14.20
2023-05-12T03:57:15.979Z,14.20
2023-05-12T03:59:42.449Z,14.20
2023-05-12T04:02:08.880Z,14.20
2023-05-12T04:04:35.369Z,14.20
2023-05-12T04:07:01.797Z,14.20
2023-05-12T04:09:28.188Z,14.20
2023-05-12T04:11:54.626Z,14.30
2023-05-12T04:14:29.014Z,14.30
2023-05-12T04:17:02.060Z,14.20
2023-05-12T04:19:28.460Z,14.20
2023-05-12T04:21:54.930Z,14.30
2023-05-12T04:24:21.424Z,14.30
2023-05-12T04:26:47.855Z,14.30
2023-05-12T04:29:14.242Z,14.30
2023-05-12T04:31:40.729Z,14.40
2023-05-12T04:34:07.176Z,14.40
2023-05-12T04:36:33.536Z,14.40
2023-05-12T04:38:59.988Z,14.50
2023-05-12T04:41:26.397Z,14.50
2023-05-12T04:46:22.164Z,14.50
2023-05-12T04:48:48.568Z,14.50
2023-05-12T04:51:15.015Z,14.50
2023-05-12T04:53:41.524Z,14.60
2023-05-12T04:56:07.988Z,14.70
2023-05-12T04:58:34.393Z,14.70
2023-05-12T05:01:00.936Z,14.70
2023-05-12T05:03:27.510Z,14.80
2023-05-12T05:05:54.096Z,14.80
2023-05-12T05:08:20.533Z,14.80
2023-05-12T05:10:46.966Z,14.80
2023-05-12T05:13:13.418Z,14.90
2023-05-12T05:15:39.828Z,14.90
2023-05-12T05:18:06.406Z,14.90
2023-05-12T05:20:33.046Z,14.90
2023-05-12T05:22:59.653Z,15.00
2023-05-12T05:25:26.045Z,15.00
2023-05-12T05:27:52.419Z,15.10
2023-05-12T05:30:18.819Z,15.10
2023-05-12T05:32:45.388Z,15.10
2023-05-12T05:35:12.034Z,15.10
2023-05-12T05:37:38.452Z,15.20
2023-05-12T05:40:04.861Z,15.30
2023-05-12T05:42:31.251Z,15.30
2023-05-12T05:44:57.656Z,15.30
2023-05-12T05:47:24.085Z,15.30
2023-05-12T05:49:50.500Z,15.40
2023-05-12T05:52:16.946Z,15.50
2023-05-12T05:54:43.348Z,15.60
2023-05-12T05:57:09.816Z,15.60
2023-05-12T05:59:36.239Z,15.50
2023-05-12T06:02:02.767Z,15.60
2023-05-12T06:04:29.229Z,15.60
2023-05-12T06:06:55.684Z,15.60
2023-05-12T06:09:22.107Z,15.60
2023-05-12T06:11:48.570Z,15.60
2023-05-12T06:14:15.027Z,15.70
2023-05-12T06:16:41.423Z,15.80
2023-05-12T06:19:08.079Z,15.80
2023-05-12T06:21:34.709Z,15.90
2023-05-12T06:24:01.171Z,16.00
2023-05-12T06:26:27.626Z,16.00
2023-05-12T06:28:54.064Z,16.00
2023-05-12T06:31:20.533Z,16.10
2023-05-12T06:33:47.019Z,16.10
2023-05-12T06:36:13.469Z,16.10
2023-05-12T06:38:39.917Z,16.20
2023-05-12T06:41:06.307Z,16.20
2023-05-12T06:43:32.793Z,16.30
2023-05-12T06:45:59.297Z,16.30
2023-05-12T06:48:25.711Z,16.40
2023-05-12T06:50:52.115Z,16.50
2023-05-12T06:53:18.582Z,16.50
2023-05-12T06:55:44.982Z,16.60
2023-05-12T06:58:11.383Z,16.70
2023-05-12T07:00:37.988Z,16.70
2023-05-12T07:03:04.564Z,16.90
2023-05-12T07:05:31.145Z,16.90
2023-05-12T07:07:57.598Z,17.00
2023-05-12T07:10:24.051Z,17.00
2023-05-12T07:12:50.542Z,17.10
2023-05-12T07:15:17.002Z,17.10
2023-05-12T07:17:43.425Z,17.20
2023-05-12T07:20:09.866Z,17.30
2023-05-12T07:22:38.449Z,17.40
2023-05-12T07:25:05.426Z,17.50
2023-05-12T07:27:31.871Z,17.50
2023-05-12T07:29:58.323Z,17.50
2023-05-12T07:32:24.823Z,17.50
2023-05-12T07:34:51.267Z,17.50
2023-05-12T07:37:17.713Z,17.60
2023-05-12T07:39:44.180Z,17.70
2023-05-12T07:42:10.582Z,17.70
2023-05-12T07:44:37.006Z,17.80
2023-05-12T07:47:03.513Z,17.80
2023-05-12T07:49:29.944Z,17.90
2023-05-12T07:51:56.393Z,18.00
2023-05-12T07:54:22.863Z,18.10
2023-05-12T07:56:49.370Z,18.10
2023-05-12T07:59:15.966Z,18.10
2023-05-12T08:01:42.530Z,18.20
2023-05-12T08:04:09.006Z,18.30
2023-05-12T08:06:35.460Z,18.30
2023-05-12T08:09:01.892Z,18.40
2023-05-12T08:11:28.305Z,18.50
2023-05-12T08:13:54.733Z,18.60
2023-05-12T08:16:21.274Z,18.80
2023-05-12T08:18:47.774Z,18.90
2023-05-12T08:21:14.230Z,19.00
2023-05-12T08:23:40.694Z,19.00
2023-05-12T08:26:07.146Z,19.10
2023-05-12T08:28:33.575Z,19.20
2023-05-12T08:31:02.692Z,19.30
2023-05-12T08:33:30.600Z,19.40
2023-05-12T08:35:57.074Z,19.50
2023-05-12T08:38:23.518Z,19.60
2023-05-12T08:40:49.980Z,19.70
2023-05-12T08:43:16.428Z,19.70
2023-05-12T08:45:42.811Z,19.80
2023-05-12T08:48:09.248Z,19.90
2023-05-12T08:50:35.752Z,20.00
2023-05-12T08:53:02.187Z,20.00
2023-05-12T08:55:32.781Z,20.10
2023-05-12T08:58:00.441Z,20.10
2023-05-12T09:00:26.992Z,20.20
2023-05-12T09:02:54.724Z,20.20
2023-05-12T09:05:21.724Z,20.10
2023-05-12T09:07:48.476Z,20.10
2023-05-12T09:10:25.908Z,20.10
2023-05-12T09:12:59.803Z,20.20
2023-05-12T09:15:26.201Z,20.40
2023-05-12T09:17:52.685Z,20.50
2023-05-12T09:20:30.459Z,20.70
2023-05-12T09:22:57.645Z,21.00
2023-05-12T09:25:24.222Z,21.20
2023-05-12T09:27:50.682Z,21.30
2023-05-12T09:30:17.217Z,21.40
2023-05-12T09:32:43.705Z,21.60
2023-05-12T09:35:10.210Z,21.80
2023-05-12T09:37:36.969Z,22.00
2023-05-12T09:40:03.538Z,22.10
2023-05-12T09:42:29.934Z,22.20
2023-05-12T09:44:56.337Z,22.40
2023-05-12T09:47:22.785Z,22.60
2023-05-12T09:49:49.291Z,22.80
2023-05-12T09:52:15.825Z,23.00
2023-05-12T09:54:42.237Z,22.90
2023-05-12T09:57:08.678Z,23.00
2023-05-12T09:59:35.142Z,23.10
2023-05-12T10:02:01.750Z,23.20
2023-05-12T10:04:28.268Z,23.30
2023-05-12T10:06:54.747Z,23.40
2023-05-12T10:09:21.135Z,23.60
2023-05-12T10:11:47.546Z,23.60
2023-05-12T10:14:13.923Z,23.50
2023-05-12T10:16:40.538Z,23.30
2023-05-12T10:19:07.116Z,23.40
2023-05-12T10:21:33.540Z,23.50
2023-05-12T10:23:59.989Z,23.50
2023-05-12T10:26:26.439Z,23.50
2023-05-12T10:28:52.830Z,23.70
2023-05-12T10:31:19.301Z,23.80
2023-05-12T10:33:46.109Z,24.00
2023-05-12T10:36:12.546Z,24.20
2023-05-12T10:38:38.965Z,24.40
2023-05-12T10:41:05.413Z,24.50
2023-05-12T10:43:31.830Z,24.50
2023-05-12T10:45:58.319Z,24.50
2023-05-12T10:48:24.798Z,24.60
2023-05-12T10:50:51.262Z,24.60
2023-05-12T10:53:17.704Z,24.50
2023-05-12T10:55:44.440Z,24.50
2023-05-12T10:58:11.523Z,24.70
2023-05-12T11:00:38.933Z,24.70
2023-05-12T11:03:09.867Z,24.80
2023-05-12T11:05:37.754Z,24.90
2023-05-12T11:08:04.773Z,25.00
2023-05-12T11:10:32.431Z,25.20
2023-05-12T11:12:59.826Z,25.30
2023-05-12T11:15:26.300Z,25.30
2023-05-12T11:17:52.740Z,25.50
2023-05-12T11:20:19.229Z,25.50
2023-05-12T11:22:45.842Z,25.60
2023-05-12T11:25:12.600Z,25.70
2023-05-12T11:27:39.127Z,25.80
2023-05-12T11:30:05.557Z,25.90
2023-05-12T11:32:31.973Z,26.00
2023-05-12T11:34:58.419Z,25.80
2023-05-12T11:37:24.884Z,25.60
2023-05-12T11:39:51.314Z,25.50
2023-05-12T11:42:20.209Z,25.50
2023-05-12T11:44:47.636Z,25.50
2023-05-12T11:47:14.143Z,25.50
2023-05-12T11:49:40.600Z,25.60
2023-05-12T11:52:07.064Z,25.70
2023-05-12T11:54:33.507Z,25.90
2023-05-12T11:56:59.972Z,26.20
2023-05-12T11:59:26.435Z,26.40
2023-05-12T12:01:52.898Z,26.40
2023-05-12T12:04:19.319Z,26.50
2023-05-12T12:06:45.976Z,26.50
2023-05-12T12:09:12.397Z,26.50
2023-05-12T12:11:38.860Z,26.60
2023-05-12T12:14:05.242Z,26.50
2023-05-12T12:16:31.740Z,26.40
2023-05-12T12:18:58.344Z,26.40
2023-05-12T12:21:24.845Z,26.50
2023-05-12T12:23:51.837Z,26.80
2023-05-12T12:26:18.343Z,27.00
2023-05-12T12:28:44.756Z,27.10
2023-05-12T12:31:11.217Z,27.30
2023-05-12T12:33:37.786Z,27.30
2023-05-12T12:36:04.380Z,27.40
2023-05-12T12:38:30.834Z,27.70
2023-05-12T12:40:57.225Z,28.20
2023-05-12T12:43:23.685Z,28.60
2023-05-12T12:45:50.080Z,28.60
2023-05-12T12:48:16.460Z,28.50
2023-05-12T12:50:42.855Z,28.60
2023-05-12T12:53:09.277Z,28.70
2023-05-12T12:55:35.718Z,28.70
2023-05-12T12:58:02.110Z,28.80
2023-05-12T13:00:28.555Z,29.10
2023-05-12T13:02:55.077Z,29.50
2023-05-12T13:05:21.718Z,29.70
2023-05-12T13:07:48.378Z,29.90
2023-05-12T13:10:14.845Z,30.10
2023-05-12T13:12:41.332Z,30.00
2023-05-12T13:15:07.799Z,30.10
2023-05-12T13:17:34.289Z,30.20
2023-05-12T13:20:00.715Z,30.30
2023-05-12T13:22:27.095Z,30.50
2023-05-12T13:24:53.528Z,30.50
2023-05-12T13:27:19.985Z,30.20
2023-05-12T13:29:46.384Z,29.70
2023-05-12T13:32:12.814Z,29.70
2023-05-12T13:34:39.237Z,30.00
2023-05-12T13:37:05.680Z,30.20
2023-05-12T13:39:32.129Z,30.20
2023-05-12T13:41:58.562Z,30.10
2023-05-12T13:44:24.976Z,30.20
2023-05-12T13:46:51.446Z,30.40
2023-05-12T13:49:17.918Z,30.70
2023-05-12T13:51:44.723Z,30.40
2023-05-12T13:54:11.120Z,30.00
2023-05-12T13:56:37.532Z,29.70
2023-05-12T13:59:03.985Z,29.90
2023-05-12T14:01:30.787Z,29.60
2023-05-12T14:03:57.295Z,29.20
2023-05-12T14:06:23.742Z,28.80
2023-05-12T14:08:50.181Z,28.60
2023-05-12T14:11:16.592Z,28.40
2023-05-12T14:13:42.995Z,28.20
2023-05-12T14:16:09.459Z,28.20
2023-05-12T14:18:35.971Z,28.30
2023-05-12T14:21:02.402Z,28.50
2023-05-12T14:23:28.817Z,28.60
2023-05-12T14:25:55.254Z,28.70
2023-05-12T14:28:21.758Z,28.40
2023-05-12T14:30:48.376Z,28.10
2023-05-12T14:33:15.075Z,27.90
2023-05-12T14:35:42.203Z,27.70
2023-05-12T14:38:09.649Z,27.50
2023-05-12T14:40:36.813Z,27.40
2023-05-12T14:43:04.408Z,27.40
2023-05-12T14:45:31.016Z,27.80
2023-05-12T14:47:57.598Z,28.20
2023-05-12T14:50:24.075Z,28.40
2023-05-12T14:52:50.503Z,28.60
2023-05-12T14:55:17.041Z,28.60
2023-05-12T14:57:43.498Z,28.40
2023-05-12T15:00:09.975Z,28.50
2023-05-12T15:02:36.544Z,28.30
2023-05-12T15:05:03.394Z,28.30
2023-05-12T15:07:29.815Z,28.00
2023-05-12T15:09:56.197Z,27.70
2023-05-12T15:12:22.611Z,27.50
2023-05-12T15:14:49.039Z,27.60
2023-05-12T15:17:15.631Z,27.50
2023-05-12T15:19:42.195Z,27.40
2023-05-12T15:22:08.591Z,27.50
2023-05-12T15:24:35.026Z,27.70
2023-05-12T15:27:01.404Z,28.00
2023-05-12T15:29:27.846Z,28.20
2023-05-12T15:31:54.396Z,28.10
2023-05-12T15:34:21.000Z,27.70
2023-05-12T15:36:47.395Z,27.30
2023-05-12T15:39:13.832Z,27.00
2023-05-12T15:41:40.224Z,26.80
2023-05-12T15:44:06.833Z,26.50
2023-05-12T15:46:33.313Z,26.30
2023-05-12T15:48:59.774Z,26.10
2023-05-12T15:51:26.218Z,25.80
2023-05-12T15:53:52.659Z,25.70
2023-05-12T15:56:19.122Z,25.70
2023-05-12T15:58:45.560Z,25.90
2023-05-12T16:01:11.985Z,26.10
2023-05-12T16:03:38.570Z,26.30
2023-05-12T16:06:06.969Z,26.50
2023-05-12T16:08:33.564Z,26.60
2023-05-12T16:11:00.043Z,26.60
2023-05-12T16:13:26.446Z,26.60
2023-05-12T16:15:52.876Z,26.70
2023-05-12T16:18:19.326Z,26.50
2023-05-12T16:20:45.810Z,26.30
2023-05-12T16:23:12.258Z,26.00
2023-05-12T16:25:38.701Z,25.90
2023-05-12T16:28:05.111Z,25.90
2023-05-12T16:30:31.563Z,26.00
2023-05-12T16:32:58.065Z,26.00
2023-05-12T16:35:24.725Z,26.00
2023-05-12T16:37:51.351Z,26.10
2023-05-12T16:40:17.801Z,26.10
2023-05-12T16:42:44.228Z,26.30
2023-05-12T16:45:10.635Z,26.20
2023-05-12T16:47:37.062Z,26.10
2023-05-12T16:50:03.526Z,26.00
2023-05-12T16:52:29.927Z,26.00
2023-05-12T16:54:56.332Z,26.10
2023-05-12T16:57:22.735Z,26.10
2023-05-12T16:59:49.116Z,26.10
2023-05-12T17:02:15.570Z,26.10
2023-05-12T17:04:42.023Z,26.10
2023-05-12T17:07:08.431Z,26.00
2023-05-12T17:09:34.842Z,26.00
2023-05-12T17:12:01.252Z,26.10
2023-05-12T17:14:27.727Z,25.90
2023-05-12T17:16:54.180Z,25.80
2023-05-12T17:19:20.757Z,25.70
2023-05-12T17:21:47.420Z,25.70
2023-05-12T17:24:13.821Z,25.60
2023-05-12T17:26:40.190Z,25.70
2023-05-12T17:29:06.667Z,25.60
2023-05-12T17:31:33.076Z,25.50
2023-05-12T17:33:59.575Z,25.40
2023-05-12T17:36:26.041Z,25.30
2023-05-12T17:38:52.421Z,25.10
2023-05-12T17:41:18.849Z,25.10
2023-05-12T17:43:45.625Z,25.10
2023-05-12T17:46:11.994Z,25.20
2023-05-12T17:48:38.567Z,25.30
2023-05-12T17:51:05.189Z,25.30
2023-05-12T17:53:31.577Z,25.30
2023-05-12T17:55:57.961Z,25.30
2023-05-12T17:58:24.437Z,25.20
2023-05-12T18:00:50.988Z,25.20
2023-05-12T18:03:17.629Z,25.00
2023-05-12T18:05:44.241Z,24.90
2023-05-12T18:08:10.678Z,24.80
2023-05-12T18:10:37.124Z,24.70
2023-05-12T18:13:03.591Z,24.60
2023-05-12T18:15:30.037Z,24.50
2023-05-12T18:17:56.475Z,24.40
2023-05-12T18:20:22.892Z,24.40
2023-05-12T18:22:49.373Z,24.30
2023-05-12T18:25:15.821Z,24.20
2023-05-12T18:27:42.297Z,24.00
2023-05-12T18:30:08.788Z,23.90
2023-05-12T18:32:35.313Z,23.90
2023-05-12T18:35:01.976Z,23.90
2023-05-12T18:37:28.438Z,23.80
2023-05-12T18:39:54.873Z,23.70
2023-05-12T18:42:21.310Z,23.70
2023-05-12T18:44:47.817Z,23.60
2023-05-12T18:47:14.269Z,23.50
2023-05-12T18:49:40.668Z,23.50
2023-05-12T18:52:07.127Z,23.50
2023-05-12T18:54:33.627Z,23.40
2023-05-12T18:57:00.052Z,23.40
2023-05-12T18:59:26.487Z,23.30
2023-05-12T19:01:53.017Z,23.20
2023-05-12T19:04:19.482Z,23.10
2023-05-12T19:06:45.924Z,23.00
2023-05-12T19:09:12.430Z,22.70
2023-05-12T19:11:39.093Z,22.50
2023-05-12T19:14:05.532Z,22.30
2023-05-12T19:16:33.703Z,22.10
2023-05-12T19:19:01.577Z,21.90
2023-05-12T19:21:28.073Z,21.80
2023-05-12T19:23:54.483Z,21.70
2023-05-12T19:26:20.940Z,21.60
2023-05-12T19:28:47.337Z,21.50
2023-05-12T19:31:13.831Z,21.30
2023-05-12T19:33:40.308Z,21.20
2023-05-12T19:36:06.769Z,21.10
2023-05-12T19:38:33.212Z,21.00
2023-05-12T19:40:59.664Z,20.90
2023-05-12T19:43:26.094Z,20.80
2023-05-12T19:45:52.489Z,20.70
2023-05-12T19:48:18.886Z,20.70
2023-05-12T19:50:45.560Z,20.60
2023-05-12T19:53:11.982Z,20.60
2023-05-12T19:55:38.385Z,20.50
2023-05-12T19:58:04.844Z,20.40
2023-05-12T20:00:31.306Z,20.20
2023-05-12T20:02:57.827Z,20.10
2023-05-12T20:05:24.386Z,20.00
2023-05-12T20:07:50.787Z,19.90
2023-05-12T20:10:17.237Z,19.90
2023-05-12T20:12:43.707Z,19.80
2023-05-12T20:15:10.192Z,19.80
2023-05-12T20:17:36.814Z,19.70
2023-05-12T20:20:03.404Z,19.70
2023-05-12T20:22:29.789Z,19.60
2023-05-12T20:24:56.184Z,19.50
2023-05-12T20:27:22.559Z,19.60
2023-05-12T20:29:49.009Z,19.60
2023-05-12T20:32:15.659Z,19.50
2023-05-12T20:34:42.085Z,19.60
2023-05-12T20:37:08.504Z,19.50
2023-05-12T20:39:34.965Z,19.50
2023-05-12T20:42:01.560Z,19.50
2023-05-12T20:44:28.034Z,19.40
2023-05-12T20:46:54.559Z,19.50
2023-05-12T20:49:21.091Z,19.50
2023-05-12T20:51:47.558Z,19.40
2023-05-12T20:54:13.962Z,19.40
2023-05-12T20:56:40.374Z,19.40
2023-05-12T20:59:06.848Z,19.40
2023-05-12T21:01:33.328Z,19.40
2023-05-12T21:03:59.740Z,19.30
2023-05-12T21:06:26.147Z,19.30
2023-05-12T21:08:52.613Z,19.40
2023-05-12T21:11:19.080Z,19.40
2023-05-12T21:13:45.610Z,19.40
2023-05-12T21:16:12.025Z,19.30
2023-05-12T21:18:38.509Z,19.30
2023-05-12T21:21:04.997Z,19.30
2023-05-12T21:23:31.386Z,19.20
2023-05-12T21:25:57.832Z,19.20
2023-05-12T21:28:24.324Z,19.10
2023-05-12T21:30:50.771Z,19.20
2023-05-12T21:33:17.215Z,19.10
2023-05-12T21:35:43.607Z,19.00
2023-05-12T21:38:10.049Z,19.00
2023-05-12T21:40:36.703Z,19.00
2023-05-12T21:43:03.389Z,19.00
2023-05-12T21:45:29.780Z,18.90
2023-05-12T21:47:56.262Z,18.90
2023-05-12T21:50:22.894Z,18.70
2023-05-12T21:52:49.573Z,18.60
2023-05-12T21:55:16.051Z,18.60
2023-05-12T21:57:42.480Z,18.60
2023-05-12T22:00:08.974Z,18.60
2023-05-12T22:02:35.387Z,18.60
2023-05-12T22:05:01.832Z,18.60
2023-05-12T22:07:28.287Z,18.60
2023-05-12T22:09:54.714Z,18.60
2023-05-12T22:12:21.094Z,18.50
2023-05-12T22:14:47.544Z,18.40
2023-05-12T22:17:13.940Z,18.40
2023-05-12T22:19:40.412Z,18.30
2023-05-12T22:22:06.879Z,18.30
2023-05-12T22:24:35.412Z,18.20
2023-05-12T22:27:01.816Z,18.20
2023-05-12T22:29:28.195Z,18.10
2023-05-12T22:31:54.579Z,18.10
2023-05-12T22:34:20.963Z,18.00
2023-05-12T22:36:47.445Z,17.90
2023-05-12T22:39:14.055Z,17.90
2023-05-12T22:41:40.500Z,17.80
2023-05-12T22:44:06.956Z,17.80
2023-05-12T22:46:33.398Z,17.80
2023-05-12T22:48:59.807Z,17.70
2023-05-12T22:51:26.213Z,17.70
2023-05-12T22:53:52.659Z,17.60
2023-05-12T22:56:19.127Z,17.60
2023-05-12T22:58:45.718Z,17.50
2023-05-12T23:01:12.215Z,17.50
2023-05-12T23:03:38.679Z,17.40
2023-05-12T23:06:05.131Z,17.40
2023-05-12T23:08:31.575Z,17.30
2023-05-12T23:10:58.002Z,17.30
2023-05-12T23:13:24.513Z,17.20
2023-05-12T23:15:50.967Z,17.20
2023-05-12T23:18:17.383Z,17.10
2023-05-12T23:20:43.767Z,17.00
2023-05-12T23:23:10.182Z,17.00
2023-05-12T23:25:36.763Z,16.90
2023-05-12T23:28:03.389Z,16.90
2023-05-12T23:30:29.801Z,16.80
2023-05-12T23:32:56.309Z,16.80
2023-05-12T23:35:22.737Z,16.80
2023-05-12T23:37:49.176Z,16.70
2023-05-12T23:40:15.768Z,16.70
2023-05-12T23:42:42.236Z,16.70
2023-05-12T23:45:08.735Z,16.60
2023-05-12T23:47:35.253Z,16.60
2023-05-12T23:50:01.771Z,16.50
2023-05-12T23:52:28.180Z,16.50
2023-05-12T23:54:54.630Z,16.50
2023-05-12T23:57:21.086Z,16.40
2023-05-12T23:59:47.530Z,16.40
